^^
Meteo Knjazevac Station Historical Data
Daily Summary for April 22, 2021 Units:  Metric    English   Both
Daily Weekly Monthly Yearly Custom
  High: Low: Average:
Temperature: 12.4 °C 3.5 °C 8.5 °C
Dew Point: 6.7 °C 1.7 °C 4.7 °C
Humidity: 91% 67% 77%
Wind Speed: 12.9km/h 0km/h 5km/h
Wind Gust: 33.8km/h - -
Wind- - South
Pressure: 1021.9 hPa 1014.8 hPa -
Precipitation: 0 mm    
Historical Graphs
 
 
Tabular Data for April 22, 2021
Time Temperature Dew Point Pressure Wind Wind Speed Wind Gust Humidity Rainfall Rate (Hourly) solar Conditions
00:00 3.5 °C 1.7 °C 1021.9 hPa South 4.8 km/h 11.3 km/h 88% 0 mm 0 W/m2
00:10 3.5 °C 1.7 °C 1021.9 hPa South 3.2 km/h 9.7 km/h 88% 0 mm 0 W/m2
00:20 3.6 °C 1.8 °C 1021.9 hPa SSW 4.8 km/h 8 km/h 88% 0 mm 0 W/m2
00:30 3.7 °C 1.9 °C 1021.9 hPa WSW 4.8 km/h 8 km/h 88% 0 mm 0 W/m2
00:40 3.9 °C 2.1 °C 1021.9 hPa WSW 8 km/h 11.3 km/h 88% 0 mm 0 W/m2
00:50 4.3 °C 2.5 °C 1021.6 hPa WSW 1.6 km/h 11.3 km/h 88% 0 mm 0 W/m2
01:00 4.5 °C 2.7 °C 1021.6 hPa West 3.2 km/h 8 km/h 88% 0 mm 0 W/m2
01:10 4.6 °C 2.4 °C 1021.6 hPa West 3.2 km/h 6.4 km/h 86% 0 mm 0 W/m2
01:20 4.7 °C 2.6 °C 1021.6 hPa Calm   6.4 km/h 86% 0 mm 0 W/m2
01:30 4.4 °C 2.3 °C 1021.6 hPa Calm   4.8 km/h 86% 0 mm 0 W/m2
01:40 4.1 °C 1.9 °C 1021.6 hPa SW 3.2 km/h 8 km/h 86% 0 mm 0 W/m2
01:50 4.3 °C 2.6 °C 1021.2 hPa South 4.8 km/h 11.3 km/h 88% 0 mm 0 W/m2
02:00 4.6 °C 2.4 °C 1021.2 hPa South 3.2 km/h 11.3 km/h 86% 0 mm 0 W/m2
02:10 4.8 °C 2.7 °C 1021.2 hPa SSW 4.8 km/h 16.1 km/h 86% 0 mm 0 W/m2
02:20 5 °C 2.7 °C 1021.2 hPa WSW 8 km/h 16.1 km/h 85% 0 mm 0 W/m2
02:30 5.6 °C 3.2 °C 1021.2 hPa WSW 3.2 km/h 12.9 km/h 85% 0 mm 0 W/m2
02:40 5.9 °C 3.4 °C 1020.9 hPa SW 3.2 km/h 12.9 km/h 84% 0 mm 0 W/m2
02:50 5.9 °C 3.4 °C 1020.9 hPa SW 4.8 km/h 9.7 km/h 84% 0 mm 0 W/m2
03:00 6 °C 3.3 °C 1020.9 hPa SSW 3.2 km/h 9.7 km/h 83% 0 mm 0 W/m2
03:10 6 °C 3.3 °C 1020.9 hPa SSW 4.8 km/h 14.5 km/h 83% 0 mm 0 W/m2
03:20 6 °C 3.3 °C 1020.9 hPa WSW 3.2 km/h 11.3 km/h 83% 0 mm 0 W/m2
03:30 5.9 °C 3.2 °C 1020.5 hPa SW 3.2 km/h 12.9 km/h 83% 0 mm 0 W/m2
03:40 5.9 °C 3.3 °C 1020.9 hPa SW 4.8 km/h 9.7 km/h 83% 0 mm 0 W/m2
03:50 6 °C 3.3 °C 1020.9 hPa SSW 8 km/h 12.9 km/h 83% 0 mm 0 W/m2
04:00 6.4 °C 3.7 °C 1020.5 hPa SSE 11.3 km/h 29 km/h 83% 0 mm 0 W/m2
04:10 6.6 °C 3.7 °C 1020.2 hPa ESE 11.3 km/h 25.7 km/h 82% 0 mm 0 W/m2
04:20 6.5 °C 3.8 °C 1020.5 hPa East 8 km/h 19.3 km/h 83% 0 mm 0 W/m2
04:30 6.7 °C 4 °C 1020.2 hPa ESE 11.3 km/h 24.1 km/h 83% 0 mm 0 W/m2
04:40 6.7 °C 4 °C 1020.2 hPa ESE 4.8 km/h 22.5 km/h 83% 0 mm 0 W/m2
04:50 6.7 °C 4 °C 1020.2 hPa SE 9.7 km/h 22.5 km/h 83% 0 mm 0 W/m2
05:00 6.5 °C 3.8 °C 1020.5 hPa WNW 3.2 km/h 8 km/h 83% 0 mm 0 W/m2
05:10 6.4 °C 3.9 °C 1020.2 hPa SE 4.8 km/h 12.9 km/h 84% 0 mm 0 W/m2
05:20 6.3 °C 3.8 °C 1020.5 hPa SW 4.8 km/h 8 km/h 84% 0 mm 0 W/m2
05:30 6.2 °C 3.7 °C 1020.5 hPa SW 3.2 km/h 9.7 km/h 84% 0 mm 0 W/m2
05:40 6.2 °C 3.9 °C 1020.5 hPa SSE 8 km/h 12.9 km/h 85% 0 mm 0 W/m2
05:50 6.4 °C 3.9 °C 1020.5 hPa SE 4.8 km/h 19.3 km/h 84% 0 mm 0 W/m2
06:00 6.4 °C 3.9 °C 1020.5 hPa SE 4.8 km/h 12.9 km/h 84% 0 mm 0 W/m2
06:10 6.2 °C 3.9 °C 1020.5 hPa SSE 3.2 km/h 14.5 km/h 85% 0 mm 0 W/m2
06:20 6.1 °C 3.9 °C 1020.5 hPa SSE 4.8 km/h 8 km/h 86% 0 mm 0 W/m2
06:30 5.7 °C 3.6 °C 1020.5 hPa WSW 4.8 km/h 11.3 km/h 86% 0 mm 0 W/m2
06:40 5.9 °C 3.6 °C 1020.2 hPa SW 1.6 km/h 8 km/h 85% 0 mm 0 W/m2
06:50 5.8 °C 3.9 °C 1020.2 hPa SSW 3.2 km/h 17.7 km/h 88% 0 mm 0 W/m2
07:00 5.8 °C 3.6 °C 1020.2 hPa South 3.2 km/h 17.7 km/h 86% 0 mm 2 W/m2
07:10 5.3 °C 3.4 °C 1019.9 hPa WSW 3.2 km/h 11.3 km/h 88% 0 mm 3 W/m2
07:20 5.1 °C 3.4 °C 1019.9 hPa West 3.2 km/h 11.3 km/h 89% 0 mm 12 W/m2
07:30 5.1 °C 3.4 °C 1019.9 hPa SSW 3.2 km/h 9.7 km/h 89% 0 mm 24 W/m2
07:40 4.7 °C 3.3 °C 1019.5 hPa SW 3.2 km/h 8 km/h 91% 0 mm 43 W/m2
07:50 4.9 °C 3.4 °C 1019.5 hPa SSW 1.6 km/h 12.9 km/h 90% 0 mm 53 W/m2
08:00 4.9 °C 3.4 °C 1019.2 hPa SW 3.2 km/h 9.7 km/h 90% 0 mm 59 W/m2
08:10 5.2 °C 3.5 °C 1019.2 hPa South 4.8 km/h 9.7 km/h 89% 0 mm 70 W/m2
08:20 5.5 °C 3.7 °C 1019.2 hPa South 3.2 km/h 11.3 km/h 88% 0 mm 81 W/m2
08:30 5.9 °C 3.7 °C 1019.2 hPa SSW 1.6 km/h 9.7 km/h 86% 0 mm 98 W/m2
08:40 6.2 °C 3.8 °C 1019.2 hPa SW 4.8 km/h 11.3 km/h 85% 0 mm 109 W/m2
08:50 6.7 °C 4.2 °C 1019.2 hPa SW 3.2 km/h 8 km/h 84% 0 mm 109 W/m2
09:00 6.8 °C 4.4 °C 1019.2 hPa WSW 3.2 km/h 8 km/h 85% 0 mm 136 W/m2
09:10 7.1 °C 4.6 °C 1019.2 hPa Calm   8 km/h 84% 0 mm 167 W/m2
09:20 7.4 °C 4.9 °C 1019.2 hPa West 3.2 km/h 6.4 km/h 84% 0 mm 176 W/m2
09:30 7.8 °C 4.9 °C 1018.8 hPa SW 1.6 km/h 8 km/h 82% 0 mm 171 W/m2
09:40 8.1 °C 5 °C 1018.8 hPa WNW 1.6 km/h 3.2 km/h 81% 0 mm 206 W/m2
09:50 8.4 °C 5.2 °C 1018.8 hPa Calm   4.8 km/h 80% 0 mm 278 W/m2
10:00 9.1 °C 5.6 °C 1018.8 hPa Calm   8 km/h 79% 0 mm 319 W/m2
10:10 9.8 °C 5.9 °C 1018.8 hPa SW 3.2 km/h 4.8 km/h 77% 0 mm 324 W/m2
10:20 10.4 °C 5.9 °C 1018.8 hPa South 4.8 km/h 9.7 km/h 74% 0 mm 344 W/m2
10:30 11 °C 6.3 °C 1018.5 hPa South 8 km/h 16.1 km/h 73% 0 mm 355 W/m2
10:40 11.5 °C 6.6 °C 1018.5 hPa South 8 km/h 19.3 km/h 72% 0 mm 364 W/m2
10:50 11.9 °C 6.4 °C 1018.5 hPa SSW 11.3 km/h 20.9 km/h 69% 0 mm 372 W/m2
11:00 12 °C 6.5 °C 1018.2 hPa SSW 8 km/h 19.3 km/h 69% 0 mm 379 W/m2
11:10 12.3 °C 6.5 °C 1017.8 hPa SSE 9.7 km/h 16.1 km/h 68% 0 mm 384 W/m2
11:20 12.4 °C 6.7 °C 1017.8 hPa SSE 4.8 km/h 20.9 km/h 68% 0 mm 309 W/m2
11:30 12.4 °C 6.7 °C 1017.8 hPa SE 4.8 km/h 16.1 km/h 68% 0 mm 244 W/m2
11:40 12.3 °C 6.6 °C 1017.5 hPa SE 9.7 km/h 19.3 km/h 68% 0 mm 262 W/m2
11:50 12.2 °C 6.4 °C 1017.5 hPa SSE 8 km/h 20.9 km/h 68% 0 mm 222 W/m2
12:00 12.1 °C 6.2 °C 1017.5 hPa SSE 11.3 km/h 20.9 km/h 67% 0 mm 188 W/m2
12:10 11.9 °C 6.2 °C 1017.2 hPa SE 11.3 km/h 19.3 km/h 68% 0 mm 184 W/m2
12:20 11.8 °C 6.1 °C 1017.2 hPa SSE 8 km/h 19.3 km/h 68% 0 mm 158 W/m2
12:30 11.8 °C 6.3 °C 1017.2 hPa SSE 1.6 km/h 11.3 km/h 69% 0 mm 161 W/m2
12:40 11.7 °C 6.2 °C 1016.8 hPa South 3.2 km/h 9.7 km/h 69% 0 mm 182 W/m2
12:50 11.8 °C 6.3 °C 1016.8 hPa SSE 3.2 km/h 12.9 km/h 69% 0 mm 199 W/m2
13:00 11.8 °C 6.3 °C 1016.8 hPa SSE 3.2 km/h 11.3 km/h 69% 0 mm 214 W/m2
13:10 11.9 °C 6.4 °C 1016.8 hPa SSE 4.8 km/h 12.9 km/h 69% 0 mm 199 W/m2
13:20 12 °C 6.3 °C 1016.5 hPa SSE 3.2 km/h 11.3 km/h 68% 0 mm 178 W/m2
13:30 11.9 °C 6.2 °C 1016.5 hPa SSW 8 km/h 16.1 km/h 68% 0 mm 149 W/m2
13:40 11.9 °C 6.2 °C 1016.5 hPa SSE 4.8 km/h 14.5 km/h 68% 0 mm 117 W/m2
13:50 11.8 °C 6.3 °C 1016.5 hPa South 3.2 km/h 9.7 km/h 69% 0 mm 107 W/m2
14:00 11.7 °C 6.2 °C 1016.1 hPa South 4.8 km/h 17.7 km/h 69% 0 mm 100 W/m2
14:10 11.6 °C 5.9 °C 1016.1 hPa SSE 8 km/h 16.1 km/h 68% 0 mm 71 W/m2
14:20 11.6 °C 5.9 °C 1016.1 hPa SSE 8 km/h 16.1 km/h 68% 0 mm 52 W/m2
14:30 11.4 °C 5.9 °C 1016.1 hPa South 4.8 km/h 12.9 km/h 69% 0 mm 37 W/m2
14:40 11.3 °C 5.8 °C 1016.1 hPa SSE 8 km/h 14.5 km/h 69% 0 mm 30 W/m2
14:50 11.2 °C 5.7 °C 1016.1 hPa SSE 9.7 km/h 22.5 km/h 69% 0 mm 32 W/m2
15:00 11.3 °C 5.6 °C 1016.1 hPa SE 9.7 km/h 29 km/h 68% 0 mm 27 W/m2
15:10 11.3 °C 5.6 °C 1016.1 hPa SSE 9.7 km/h 22.5 km/h 68% 0 mm 25 W/m2
15:20 11.3 °C 5.8 °C 1015.8 hPa SSE 8 km/h 19.3 km/h 69% 0 mm 19 W/m2
15:30 11.2 °C 5.7 °C 1016.1 hPa SE 8 km/h 20.9 km/h 69% 0 mm 16 W/m2
15:40 11.1 °C 5.6 °C 1016.1 hPa SSE 3.2 km/h 20.9 km/h 69% 0 mm 12 W/m2
15:50 11 °C 5.7 °C 1016.1 hPa SSE 1.6 km/h 9.7 km/h 70% 0 mm 10 W/m2
16:00 10.9 °C 5.7 °C 1016.1 hPa South 3.2 km/h 11.3 km/h 70% 0 mm 7 W/m2
16:10 10.7 °C 5.5 °C 1016.1 hPa South 3.2 km/h 9.7 km/h 70% 0 mm 3 W/m2
16:20 10.5 °C 5.7 °C 1015.8 hPa South 3.2 km/h 11.3 km/h 72% 0 mm 3 W/m2
16:30 10.4 °C 5.6 °C 1016.1 hPa SSW 4.8 km/h 9.7 km/h 72% 0 mm 0 W/m2
16:40 10.1 °C 5.3 °C 1016.1 hPa SSW 3.2 km/h 9.7 km/h 72% 0 mm 0 W/m2
16:50 9.9 °C 5.1 °C 1016.1 hPa SSW 3.2 km/h 11.3 km/h 72% 0 mm 0 W/m2
17:00 9.7 °C 5.1 °C 1015.8 hPa SSW 1.6 km/h 8 km/h 73% 0 mm 0 W/m2
17:10 9.6 °C 5 °C 1015.8 hPa SSW 3.2 km/h 11.3 km/h 73% 0 mm 0 W/m2
17:20 9.5 °C 4.9 °C 1015.8 hPa SSW 3.2 km/h 9.7 km/h 73% 0 mm 0 W/m2
17:30 9.4 °C 4.8 °C 1015.8 hPa SSW 3.2 km/h 11.3 km/h 73% 0 mm 0 W/m2
17:40 9.5 °C 4.9 °C 1016.1 hPa South 3.2 km/h 9.7 km/h 73% 0 mm 0 W/m2
17:50 9.5 °C 4.9 °C 1016.1 hPa SSE 1.6 km/h 8 km/h 73% 0 mm 0 W/m2
18:00 9.4 °C 5 °C 1015.8 hPa SW 1.6 km/h 4.8 km/h 74% 0 mm 0 W/m2
18:10 9.3 °C 4.8 °C 1016.1 hPa WNW 3.2 km/h 8 km/h 74% 0 mm 0 W/m2
18:20 9.3 °C 5.1 °C 1016.1 hPa WNW 1.6 km/h 6.4 km/h 75% 0 mm 0 W/m2
18:30 9.4 °C 5.1 °C 1015.8 hPa SSW 3.2 km/h 8 km/h 74% 0 mm 0 W/m2
18:40 9.3 °C 4.9 °C 1015.5 hPa SSW 3.2 km/h 8 km/h 74% 0 mm 0 W/m2
18:50 9.1 °C 4.7 °C 1015.5 hPa SSW 3.2 km/h 9.7 km/h 74% 0 mm 0 W/m2
19:00 9.1 °C 4.7 °C 1015.5 hPa SSW 4.8 km/h 11.3 km/h 74% 0 mm 0 W/m2
19:10 9.1 °C 4.7 °C 1015.5 hPa SW 4.8 km/h 11.3 km/h 74% 0 mm 0 W/m2
19:20 9.3 °C 4.9 °C 1015.5 hPa SSW 8 km/h 12.9 km/h 74% 0 mm 0 W/m2
19:30 9.4 °C 5 °C 1015.5 hPa South 3.2 km/h 11.3 km/h 74% 0 mm 0 W/m2
19:40 9.6 °C 5.2 °C 1015.5 hPa South 1.6 km/h 12.9 km/h 74% 0 mm 0 W/m2
19:50 9.6 °C 5.2 °C 1015.5 hPa ENE 1.6 km/h 6.4 km/h 74% 0 mm 0 W/m2
20:00 9.5 °C 5.3 °C 1015.5 hPa Calm   9.7 km/h 75% 0 mm 0 W/m2
20:10 9.5 °C 5.1 °C 1015.5 hPa SE 3.2 km/h 8 km/h 74% 0 mm 0 W/m2
20:20 9.6 °C 5.2 °C 1015.5 hPa SSE 3.2 km/h 11.3 km/h 74% 0 mm 0 W/m2
20:30 9.6 °C 5.2 °C 1015.5 hPa SE 3.2 km/h 11.3 km/h 74% 0 mm 0 W/m2
20:40 9.7 °C 5.3 °C 1015.1 hPa ESE 3.2 km/h 11.3 km/h 74% 0 mm 0 W/m2
20:50 9.7 °C 5.3 °C 1015.1 hPa ESE 3.2 km/h 11.3 km/h 74% 0 mm 0 W/m2
21:00 9.7 °C 5.3 °C 1015.5 hPa SSE 3.2 km/h 8 km/h 74% 0 mm 0 W/m2
21:10 9.7 °C 5.3 °C 1015.5 hPa South 1.6 km/h 6.4 km/h 74% 0 mm 0 W/m2
21:20 9.6 °C 5.2 °C 1015.1 hPa SSE 4.8 km/h 9.7 km/h 74% 0 mm 0 W/m2
21:30 9.6 °C 5.2 °C 1015.1 hPa SE 8 km/h 12.9 km/h 74% 0 mm 0 W/m2
21:40 9.7 °C 5.3 °C 1015.1 hPa SE 1.6 km/h 12.9 km/h 74% 0 mm 0 W/m2
21:50 9.7 °C 5.3 °C 1014.8 hPa SSE 4.8 km/h 11.3 km/h 74% 0 mm 0 W/m2
22:00 9.9 °C 5.3 °C 1015.1 hPa SE 8 km/h 14.5 km/h 73% 0 mm 0 W/m2
22:10 9.9 °C 5.3 °C 1014.8 hPa SE 8 km/h 14.5 km/h 73% 0 mm 0 W/m2
22:20 9.8 °C 5.2 °C 1014.8 hPa SSE 8 km/h 14.5 km/h 73% 0 mm 0 W/m2
22:30 9.9 °C 5.3 °C 1015.1 hPa SSE 9.7 km/h 20.9 km/h 73% 0 mm 0 W/m2
22:40 10.2 °C 5.4 °C 1014.8 hPa SSE 9.7 km/h 25.7 km/h 72% 0 mm 0 W/m2
22:50 10.2 °C 5.4 °C 1014.8 hPa SSE 8 km/h 22.5 km/h 72% 0 mm 0 W/m2
23:00 10 °C 5.4 °C 1015.1 hPa South 8 km/h 16.1 km/h 73% 0 mm 0 W/m2
23:10 10 °C 5.4 °C 1014.8 hPa SSE 11.3 km/h 22.5 km/h 73% 0 mm 0 W/m2
23:20 10.4 °C 5.6 °C 1014.8 hPa SE 11.3 km/h 27.4 km/h 72% 0 mm 0 W/m2
23:30 10.5 °C 5.3 °C 1014.8 hPa SE 12.9 km/h 25.7 km/h 70% 0 mm 0 W/m2
23:40 10.6 °C 5.3 °C 1014.8 hPa SE 11.3 km/h 32.2 km/h 70% 0 mm 0 W/m2
23:50 10.6 °C 5.3 °C 1014.8 hPa SSE 12.9 km/h 33.8 km/h 70% 0 mm 0 W/m2
Knjazevac, Serbia
Compliments of Weather Underground - 2 mb